Time;durP1;ratioP1;P1;durP2;ratioP2;P2;SDS_P1;SDS_P2;PMS_P1;PMS_P2;Temp;Humidity;BMP_temperature;BMP_pressure;BME280_temperature;BME280_humidity;BME280_pressure;Samples;Min_cycle;Max_cycle;Signal;HPM_P1;HPM_P2
2023/05/13 00:02:14;;;;;;;5.73;3.87;;;;;;;11.27;100.00;101782.13;5001016;28;20193;-75
2023/05/13 00:04:39;;;;;;;8.87;4.17;;;;;;;11.09;100.00;101730.59;5002438;28;20207;-75
2023/05/13 00:07:04;;;;;;;5.40;4.00;;;;;;;10.45;100.00;101626.28;5001535;28;20217;-76
2023/05/13 00:09:30;;;;;;;4.67;3.53;;;;;;;10.71;100.00;101658.09;5000963;28;20192;-76
2023/05/13 00:11:55;;;;;;;7.00;4.17;;;;;;;11.57;100.00;101819.84;5001874;28;20270;-75
2023/05/13 00:14:21;;;;;;;6.13;4.13;;;;;;;10.80;100.00;101685.72;5004577;28;20206;-76
2023/05/13 00:16:46;;;;;;;3.53;3.07;;;;;;;10.85;100.00;101720.91;5000578;28;20294;-75
2023/05/13 00:19:12;;;;;;;4.90;3.80;;;;;;;10.63;100.00;101660.84;5002560;28;20189;-76
2023/05/13 00:21:37;;;;;;;4.30;3.70;;;;;;;11.47;100.00;101808.50;5002338;28;20184;-75
2023/05/13 00:24:04;;;;;;;6.10;4.20;;;;;;;11.41;100.00;101772.47;4999759;28;20215;-76
2023/05/13 00:26:29;;;;;;;6.97;4.20;;;;;;;10.92;100.00;101721.00;4998051;28;20220;-76
2023/05/13 00:28:55;;;;;;;6.70;3.97;;;;;;;11.19;100.00;101754.50;4996107;28;20838;-76
2023/05/13 00:31:20;;;;;;;5.20;3.60;;;;;;;10.49;100.00;101640.97;4999900;28;20209;-76
2023/05/13 00:33:46;;;;;;;7.30;4.83;;;;;;;10.54;100.00;101624.38;4999419;28;20292;-76
2023/05/13 00:36:11;;;;;;;7.20;4.80;;;;;;;12.30;100.00;101936.66;4999873;28;20522;-75
2023/05/13 00:38:37;;;;;;;8.17;4.20;;;;;;;11.04;100.00;101709.66;5000013;28;20814;-76
2023/05/13 00:41:03;;;;;;;5.97;4.27;;;;;;;10.48;100.00;101561.53;4996107;28;20193;-75
2023/05/13 00:43:28;;;;;;;5.53;4.13;;;;;;;10.80;100.00;101634.72;4998790;28;20188;-76
2023/05/13 00:45:54;;;;;;;9.07;4.70;;;;;;;11.15;100.00;101708.41;4997200;28;21183;-75
2023/05/13 00:48:21;;;;;;;8.17;4.60;;;;;;;10.67;100.00;101651.41;4998383;28;20449;-76
2023/05/13 00:50:47;;;;;;;5.10;4.60;;;;;;;10.03;100.00;101546.25;5002594;28;20182;-78
2023/05/13 00:53:13;;;;;;;7.43;4.77;;;;;;;10.53;100.00;101641.47;4999067;28;20514;-77
2023/05/13 00:55:45;;;;;;;8.80;4.20;;;;;;;10.07;100.00;101552.94;5000233;28;20537;-79
2023/05/13 00:58:12;;;;;;;5.10;4.60;;;;;;;11.05;100.00;101761.50;5000243;28;20968;-77
2023/05/13 01:00:58;;;;;;;7.23;5.03;;;;;;;12.39;100.00;101894.38;4995654;28;21095;-78
2023/05/13 01:03:45;;;;;;;5.73;4.20;;;;;;;12.25;100.00;101900.56;4997271;28;20906;-77
2023/05/13 01:06:35;;;;;;;5.70;4.27;;;;;;;10.71;100.00;101643.88;5000780;28;20455;-78
2023/05/13 01:09:05;;;;;;;5.90;4.70;;;;;;;10.48;100.00;101646.53;4999483;28;20450;-77
2023/05/13 01:11:36;;;;;;;5.60;4.57;;;;;;;11.34;100.00;101757.25;4998292;28;20502;-77
2023/05/13 01:14:08;;;;;;;5.83;4.70;;;;;;;10.01;100.00;101553.63;4997869;28;20762;-77
2023/05/13 01:17:13;;;;;;;7.20;4.63;;;;;;;12.03;100.00;101884.28;4997757;28;20441;-78
2023/05/13 01:19:43;;;;;;;4.77;3.90;;;;;;;12.05;100.00;101889.50;4996268;28;20436;-77
2023/05/13 01:22:09;;;;;;;6.97;5.17;;;;;;;10.15;100.00;101591.25;4999123;28;20979;-77
2023/05/13 01:24:35;;;;;;;5.53;4.40;;;;;;;10.66;100.00;101716.00;4997899;28;20472;-77
2023/05/13 01:27:01;;;;;;;5.90;4.93;;;;;;;10.58;100.00;101653.31;5000066;28;20189;-78
2023/05/13 01:29:27;;;;;;;5.67;4.60;;;;;;;10.08;100.00;101608.22;5000687;28;20185;-77
2023/05/13 01:31:55;;;;;;;6.10;4.13;;;;;;;10.61;100.00;101666.38;5001611;28;20514;-78
2023/05/13 01:34:22;;;;;;;5.30;4.53;;;;;;;10.12;100.00;101623.75;5002606;28;20839;-78
2023/05/13 01:36:48;;;;;;;6.20;4.87;;;;;;;9.62;100.00;101501.78;4995764;28;20443;-77
2023/05/13 01:39:14;;;;;;;5.33;4.77;;;;;;;10.51;100.00;101659.59;4996578;28;20456;-77
2023/05/13 01:41:40;;;;;;;11.23;4.97;;;;;;;10.35;100.00;101647.94;4993159;28;20189;-78
2023/05/13 01:44:05;;;;;;;5.80;5.20;;;;;;;10.37;100.00;101651.28;4992760;28;20476;-77
2023/05/13 01:46:31;;;;;;;6.10;4.90;;;;;;;10.63;100.00;101679.63;4997469;28;20208;-77
2023/05/13 01:48:56;;;;;;;6.43;5.13;;;;;;;10.14;100.00;101667.31;4995336;28;20208;-78
2023/05/13 01:51:22;;;;;;;4.87;4.33;;;;;;;9.21;100.00;101461.03;4996143;28;20724;-78
2023/05/13 01:53:47;;;;;;;6.90;4.70;;;;;;;9.57;100.00;101530.94;4996942;28;20224;-78
2023/05/13 01:56:13;;;;;;;7.80;4.67;;;;;;;9.71;100.00;101551.63;4997714;28;20182;-78
2023/05/13 01:58:38;;;;;;;7.70;4.80;;;;;;;9.72;100.00;101550.63;4999566;28;20247;-77
2023/05/13 02:01:03;;;;;;;10.53;5.13;;;;;;;11.20;100.00;101737.41;5002077;28;20237;-77
2023/05/13 02:03:29;;;;;;;5.23;4.07;;;;;;;10.04;100.00;101570.22;4998229;28;20221;-77
2023/05/13 02:05:55;;;;;;;4.97;4.47;;;;;;;10.14;100.00;101619.06;4997689;28;20653;-76
2023/05/13 02:08:22;;;;;;;5.20;4.47;;;;;;;10.05;100.00;101612.09;4999985;28;20192;-77
2023/05/13 02:10:57;;;;;;;5.30;4.27;;;;;;;10.27;100.00;101578.31;4998418;28;20192;-77
2023/05/13 02:13:24;;;;;;;6.40;5.13;;;;;;;10.30;100.00;101609.25;5001750;28;20435;-77
2023/05/13 02:15:49;;;;;;;6.90;5.40;;;;;;;10.48;100.00;101668.84;4998965;28;20429;-77
2023/05/13 02:18:15;;;;;;;7.40;5.13;;;;;;;10.95;100.00;101675.84;5007771;28;20469;-78
2023/05/13 02:20:40;;;;;;;6.80;5.13;;;;;;;10.43;100.00;101635.50;5002573;28;20231;-78
2023/05/13 02:23:06;;;;;;;4.47;4.07;;;;;;;10.00;100.00;101568.88;5004229;28;20243;-78
2023/05/13 02:25:32;;;;;;;6.20;5.10;;;;;;;10.85;100.00;101681.47;5001575;28;20221;-77
2023/05/13 02:27:58;;;;;;;8.90;4.77;;;;;;;10.53;100.00;101652.19;5003343;28;20901;-78
2023/05/13 02:30:25;;;;;;;9.50;5.17;;;;;;;10.72;100.00;101699.19;5001856;28;20187;-77
2023/05/13 02:32:52;;;;;;;8.90;4.90;;;;;;;10.29;100.00;101603.06;5001413;28;20510;-77
2023/05/13 02:35:17;;;;;;;6.03;5.40;;;;;;;10.09;100.00;101567.81;4999996;28;20603;-77
2023/05/13 02:37:43;;;;;;;5.80;5.03;;;;;;;9.30;100.00;101418.97;5001296;28;20916;-77
2023/05/13 02:40:09;;;;;;;5.93;5.33;;;;;;;9.50;100.00;101452.31;5005180;28;20427;-77
2023/05/13 02:42:35;;;;;;;8.67;5.50;;;;;;;9.70;100.00;101488.34;5001426;28;20498;-77
2023/05/13 02:45:00;;;;;;;7.10;5.93;;;;;;;10.02;100.00;101556.16;4999985;23;20283;-79
2023/05/13 02:47:26;;;;;;;6.20;5.50;;;;;;;9.80;100.00;101525.63;4988327;28;20282;-77
2023/05/13 02:49:53;;;;;;;6.97;5.60;;;;;;;9.58;100.00;101464.84;4982561;28;20190;-78
2023/05/13 02:52:19;;;;;;;7.17;5.40;;;;;;;9.05;100.00;101381.63;4982961;28;20213;-77
2023/05/13 02:54:44;;;;;;;6.83;5.90;;;;;;;9.82;100.00;101558.44;4986510;28;20976;-77
2023/05/13 02:57:10;;;;;;;6.53;5.70;;;;;;;9.87;100.00;101534.66;4980972;28;20189;-76
2023/05/13 02:59:35;;;;;;;7.17;6.30;;;;;;;10.62;100.00;101645.78;4986553;28;20213;-76
2023/05/13 03:02:01;;;;;;;8.40;5.87;;;;;;;10.26;100.00;101608.75;4989826;28;20185;-78
2023/05/13 03:04:26;;;;;;;7.17;5.60;;;;;;;9.50;100.00;101474.59;4989404;28;20586;-76
2023/05/13 03:06:52;;;;;;;6.83;5.97;;;;;;;10.40;100.00;101609.88;4984148;28;20210;-77
2023/05/13 03:09:17;;;;;;;7.30;6.47;;;;;;;9.04;100.00;101375.44;4983162;28;20197;-76
2023/05/13 03:11:43;;;;;;;6.87;5.43;;;;;;;10.75;100.00;101631.75;4983758;28;20245;-77
2023/05/13 03:14:08;;;;;;;8.20;5.50;;;;;;;10.01;100.00;101543.78;4983764;28;20619;-78
2023/05/13 03:16:33;;;;;;;7.27;5.77;;;;;;;9.24;100.00;101447.28;4979710;28;20193;-78
2023/05/13 03:18:59;;;;;;;8.53;6.50;;;;;;;9.02;100.00;101380.13;4982809;28;20200;-76
2023/05/13 03:21:24;;;;;;;6.63;5.87;;;;;;;9.31;100.00;101445.56;4986355;28;20205;-77
2023/05/13 03:23:50;;;;;;;7.63;5.87;;;;;;;9.41;100.00;101456.06;4986407;28;20293;-77
2023/05/13 03:26:15;;;;;;;18.23;6.00;;;;;;;9.22;100.00;101466.19;4985112;28;20233;-78
2023/05/13 03:28:41;;;;;;;9.60;6.40;;;;;;;9.86;100.00;101565.09;4983478;28;20194;-77
2023/05/13 03:31:06;;;;;;;6.40;5.60;;;;;;;9.72;100.00;101553.31;4985000;28;20742;-79
2023/05/13 03:33:32;;;;;;;8.73;6.20;;;;;;;10.51;100.00;101654.22;4983951;28;20535;-77
2023/05/13 03:35:57;;;;;;;7.40;6.00;;;;;;;10.66;100.00;101684.63;4983396;28;20633;-78
2023/05/13 03:38:22;;;;;;;8.63;6.67;;;;;;;8.73;100.00;101375.44;4984085;28;20186;-77
2023/05/13 03:40:48;;;;;;;8.70;6.00;;;;;;;8.74;100.00;101368.25;4983442;28;20189;-79
2023/05/13 03:43:13;;;;;;;8.57;6.30;;;;;;;9.18;100.00;101450.66;4986197;28;20562;-77
2023/05/13 03:45:39;;;;;;;10.80;6.13;;;;;;;9.67;100.00;101515.50;4986996;28;20232;-78
2023/05/13 03:48:05;;;;;;;7.37;6.33;;;;;;;9.32;100.00;101478.53;4983103;28;20229;-77
2023/05/13 03:50:30;;;;;;;8.70;7.23;;;;;;;10.16;100.00;101622.41;4983221;28;20208;-77
2023/05/13 03:52:55;;;;;;;8.40;6.33;;;;;;;10.30;100.00;101660.22;4999395;28;20260;-77
2023/05/13 03:55:21;;;;;;;7.90;6.60;;;;;;;11.21;100.00;101776.66;4988911;28;20213;-79
2023/05/13 03:57:47;;;;;;;8.07;7.27;;;;;;;8.80;100.00;101379.09;4988994;28;20268;-78
2023/05/13 04:00:13;;;;;;;10.13;7.13;;;;;;;9.59;100.00;101512.88;4986893;28;20232;-77
2023/05/13 04:02:39;;;;;;;7.83;7.00;;;;;;;9.23;100.00;101499.16;4988571;28;20472;-77
2023/05/13 04:05:05;;;;;;;8.87;7.00;;;;;;;9.69;100.00;101524.22;4988806;28;20475;-79
2023/05/13 04:07:30;;;;;;;7.50;6.57;;;;;;;9.22;100.00;101450.13;4981617;28;20284;-80
2023/05/13 04:09:56;;;;;;;7.53;6.70;;;;;;;8.82;100.00;101395.81;4989048;28;20192;-77
2023/05/13 04:12:21;;;;;;;8.10;7.30;;;;;;;9.36;100.00;101495.91;4988545;28;20186;-77
2023/05/13 04:14:47;;;;;;;10.17;7.30;;;;;;;8.94;100.00;101416.81;4988981;28;20237;-78
2023/05/13 04:17:12;;;;;;;7.10;6.30;;;;;;;9.54;100.00;101512.53;4990046;28;20189;-78
2023/05/13 04:19:38;;;;;;;7.60;6.87;;;;;;;9.74;100.00;101579.91;4989712;28;20251;-78
2023/05/13 04:22:03;;;;;;;9.17;6.03;;;;;;;9.61;100.00;101566.28;4991738;28;20564;-77
2023/05/13 04:24:29;;;;;;;7.83;5.80;;;;;;;8.85;100.00;101383.91;4991376;28;20233;-77
2023/05/13 04:26:54;;;;;;;7.53;6.80;;;;;;;9.11;100.00;101438.97;4989394;28;20292;-78
2023/05/13 04:29:20;;;;;;;8.00;7.20;;;;;;;9.99;100.00;101569.91;4985490;28;20196;-77
2023/05/13 04:31:45;;;;;;;6.97;6.37;;;;;;;10.10;100.00;101571.34;4987886;28;20199;-79
2023/05/13 04:34:10;;;;;;;8.20;5.90;;;;;;;9.73;100.00;101540.75;4983288;28;20210;-77
2023/05/13 04:36:36;;;;;;;9.53;7.07;;;;;;;10.55;100.00;101650.16;4988820;28;20240;-78
2023/05/13 04:39:02;;;;;;;8.80;7.27;;;;;;;10.40;100.00;101573.16;4981969;28;20186;-79
2023/05/13 04:41:27;;;;;;;9.90;8.23;;;;;;;9.39;100.00;101474.16;4986938;28;20228;-82
2023/05/13 04:43:53;;;;;;;7.40;6.20;;;;;;;9.20;100.00;101441.47;4989486;28;20554;-79
2023/05/13 04:46:18;;;;;;;9.53;7.30;;;;;;;9.85;100.00;101551.91;4988457;28;20225;-79
2023/05/13 04:48:47;;;;;;;10.10;7.13;;;;;;;10.04;100.00;101516.63;4986703;28;20202;-78
2023/05/13 04:51:14;;;;;;;7.23;6.53;;;;;;;9.43;100.00;101468.28;4986914;28;20223;-77
2023/05/13 04:53:39;;;;;;;7.70;6.47;;;;;;;9.14;100.00;101369.03;4985900;28;20528;-78
2023/05/13 04:56:05;;;;;;;8.03;7.17;;;;;;;9.73;100.00;101471.94;4983140;28;20547;-77
2023/05/13 04:58:31;;;;;;;9.37;6.93;;;;;;;9.23;100.00;101403.63;4986400;28;20196;-77
2023/05/13 05:00:56;;;;;;;8.80;7.20;;;;;;;9.30;100.00;101408.28;4985094;28;20194;-76
2023/05/13 05:03:22;;;;;;;9.20;6.90;;;;;;;10.12;100.00;101540.66;4985239;28;20218;-78
2023/05/13 05:05:48;;;;;;;9.43;6.77;;;;;;;9.94;100.00;101492.72;4981596;28;20214;-77
2023/05/13 05:08:13;;;;;;;10.00;6.40;;;;;;;10.06;100.00;101536.00;4982399;28;20452;-78
2023/05/13 05:10:39;;;;;;;12.97;7.33;;;;;;;9.45;100.00;101371.69;4986171;28;20200;-79
2023/05/13 05:13:04;;;;;;;9.67;6.90;;;;;;;11.70;100.00;101744.81;4981550;28;20633;-78
2023/05/13 05:15:30;;;;;;;11.60;7.17;;;;;;;10.95;100.00;101621.34;4986667;28;20206;-81
2023/05/13 05:17:55;;;;;;;10.20;6.60;;;;;;;11.28;100.00;101665.66;4987973;28;20836;-78
2023/05/13 05:20:23;;;;;;;7.43;6.60;;;;;;;9.48;100.00;101387.41;4987030;28;20628;-78
2023/05/13 05:22:49;;;;;;;7.00;6.30;;;;;;;9.77;100.00;101407.28;4986209;28;20201;-78
2023/05/13 05:25:15;;;;;;;7.97;6.50;;;;;;;10.61;100.00;101561.75;4982289;28;20557;-77
2023/05/13 05:27:40;;;;;;;10.00;6.40;;;;;;;9.78;100.00;101379.47;4980104;28;20461;-77
2023/05/13 05:30:09;;;;;;;9.07;6.73;;;;;;;10.69;100.00;101562.69;4982485;28;20459;-79
2023/05/13 05:32:34;;;;;;;8.60;6.67;;;;;;;9.88;100.00;101417.56;4985278;28;20699;-78
2023/05/13 05:35:01;;;;;;;8.07;6.37;;;;;;;12.13;100.00;101757.66;4982841;28;20467;-77
2023/05/13 05:37:28;;;;;;;8.00;7.00;;;;;;;9.40;100.00;101323.19;4979699;28;20189;-77
2023/05/13 05:39:54;;;;;;;9.27;6.40;;;;;;;10.56;100.00;101523.09;4989147;28;20448;-77
2023/05/13 05:42:19;;;;;;;9.67;6.00;;;;;;;10.94;100.00;101598.22;4989332;28;20436;-77
2023/05/13 05:44:46;;;;;;;9.73;6.00;;;;;;;11.29;100.00;101602.84;4987987;28;20221;-77
2023/05/13 05:47:11;;;;;;;6.37;5.77;;;;;;;9.97;100.00;101344.13;5003391;28;20220;-77
2023/05/13 05:49:37;;;;;;;8.40;5.80;;;;;;;12.32;100.00;101740.06;4989875;28;20456;-78
2023/05/13 05:52:02;;;;;;;6.43;5.63;;;;;;;11.81;100.00;101675.50;4989961;28;20178;-77
2023/05/13 05:54:28;;;;;;;6.13;5.53;;;;;;;11.05;100.00;101533.31;4988200;28;20839;-79
2023/05/13 05:56:53;;;;;;;8.53;6.23;;;;;;;10.42;100.00;101389.81;4990096;28;20174;-78
2023/05/13 05:59:19;;;;;;;6.57;5.53;;;;;;;10.77;100.00;101439.19;4990163;28;20186;-78
2023/05/13 06:01:45;;;;;;;5.87;5.20;;;;;;;11.92;100.00;101632.88;4990458;28;20594;-78
2023/05/13 06:04:10;;;;;;;5.10;4.60;;;;;;;11.04;100.00;101475.28;4989305;28;20605;-79
2023/05/13 06:06:36;;;;;;;7.70;6.00;;;;;;;10.73;100.00;101389.59;4989109;28;20212;-78
2023/05/13 06:09:01;;;;;;;7.27;5.57;;;;;;;11.59;100.00;101538.34;4986463;28;20973;-78
2023/05/13 06:11:27;;;;;;;5.53;4.83;;;;;;;12.14;100.00;101624.84;4986729;28;20200;-78
2023/05/13 06:13:53;;;;;;;6.37;5.33;;;;;;;12.29;100.00;101632.84;4985227;28;20273;-77
2023/05/13 06:16:18;;;;;;;5.60;4.97;;;;;;;12.37;100.00;101659.63;4987904;28;20659;-78
2023/05/13 06:18:43;;;;;;;6.33;4.87;;;;;;;11.59;100.00;101538.34;4985718;28;20440;-77
2023/05/13 06:21:09;;;;;;;5.43;4.63;;;;;;;11.86;100.00;101561.06;4984181;28;20185;-78
2023/05/13 06:23:34;;;;;;;7.27;4.53;;;;;;;13.37;100.00;101808.75;4986703;28;20551;-79
2023/05/13 06:26:00;;;;;;;7.03;4.77;;;;;;;11.77;100.00;101524.50;4985477;28;20206;-84
2023/05/13 06:28:25;;;;;;;6.27;5.40;;;;;;;11.26;100.00;101450.16;4987321;28;20189;-86
2023/05/13 06:30:52;;;;;;;5.40;4.47;;;;;;;11.26;100.00;101414.41;4987422;28;20669;-86
2023/05/13 06:33:17;;;;;;;8.63;5.37;;;;;;;11.72;100.00;101500.91;4986450;28;20182;-85
2023/05/13 06:35:46;;;;;;;8.33;4.80;;;;;;;13.12;100.00;101741.75;4984488;28;20831;-81
2023/05/13 06:38:13;;;;;;;6.47;4.80;;;;;;;11.18;100.00;101407.28;4982514;28;21222;-85
2023/05/13 06:40:38;;;;;;;5.60;4.67;;;;;;;11.91;100.00;101515.59;4984940;28;20787;-85
2023/05/13 06:43:04;;;;;;;6.63;4.90;;;;;;;11.90;100.00;101513.09;4982814;28;20444;-84
2023/05/13 06:45:29;;;;;;;5.10;4.60;;;;;;;11.66;100.00;101473.97;4985704;28;20209;-85
2023/05/13 06:47:55;;;;;;;6.27;4.40;;;;;;;12.50;100.00;101622.13;4988454;28;20182;-85
2023/05/13 06:50:20;;;;;;;6.20;4.30;;;;;;;11.73;100.00;101458.72;4989750;28;20558;-85
2023/05/13 06:52:46;;;;;;;5.60;4.00;;;;;;;11.89;100.00;101481.84;4990010;28;20185;-85
2023/05/13 06:55:11;;;;;;;4.30;3.90;;;;;;;13.31;100.00;101738.44;4989512;28;20233;-84
2023/05/13 06:57:38;;;;;;;4.83;4.23;;;;;;;12.62;100.00;101634.03;4989653;28;20186;-84
2023/05/13 07:00:04;;;;;;;7.63;4.33;;;;;;;12.86;100.00;101683.94;4989121;28;20178;-85
2023/05/13 07:02:30;;;;;;;7.00;4.37;;;;;;;12.65;100.00;101639.03;4990122;28;20484;-85
2023/05/13 07:04:55;;;;;;;5.73;3.97;;;;;;;13.53;100.00;101747.31;4989412;28;20863;-85
2023/05/13 07:07:21;;;;;;;5.23;3.70;;;;;;;13.51;100.00;101730.50;4989339;28;20190;-85
2023/05/13 07:09:46;;;;;;;6.27;4.00;;;;;;;12.64;100.00;101580.00;4989604;28;20177;-85
2023/05/13 07:12:13;;;;;;;5.43;4.23;;;;;;;12.61;100.00;101575.84;4990598;28;20203;-82
2023/05/13 07:14:38;;;;;;;5.40;4.87;;;;;;;13.02;100.00;101660.47;4987903;28;20285;-85
2023/05/13 07:17:04;;;;;;;4.73;3.97;;;;;;;12.87;100.00;101617.47;4989579;28;20417;-82
2023/05/13 07:19:30;;;;;;;3.97;3.57;;;;;;;12.82;100.00;101609.97;4989860;28;20189;-83
2023/05/13 07:21:55;;;;;;;7.67;4.80;;;;;;;13.20;100.00;101687.75;4988388;28;20185;-84
2023/05/13 07:24:21;;;;;;;5.90;4.13;;;;;;;13.64;100.00;101735.16;4989592;28;20221;-83
2023/05/13 07:26:46;;;;;;;5.93;3.80;;;;;;;12.58;100.00;101552.03;4989307;28;20212;-82
2023/05/13 07:29:12;;;;;;;4.80;4.10;;;;;;;13.54;100.00;101723.91;4986719;28;20186;-84
2023/05/13 07:31:37;;;;;;;4.50;3.50;;;;;;;13.43;100.00;101684.84;4989088;28;20610;-83
2023/05/13 07:34:03;;;;;;;4.20;3.77;;;;;;;13.62;100.00;101717.50;4988097;28;20205;-83
2023/05/13 07:36:29;;;;;;;5.30;4.00;;;;;;;13.66;100.00;101702.63;4993801;28;20177;-84
2023/05/13 07:38:54;;;;;;;6.77;4.13;;;;;;;13.23;100.00;101600.31;4989503;28;20189;-83
2023/05/13 07:41:20;;;;;;;5.53;4.20;;;;;;;13.24;100.00;101618.16;4989687;28;20639;-81
2023/05/13 07:43:45;;;;;;;4.63;3.50;;;;;;;14.13;100.00;101742.28;4989016;28;20586;-83
2023/05/13 07:46:11;;;;;;;4.23;3.83;;;;;;;13.84;100.00;101702.09;4985785;28;20217;-84
2023/05/13 07:48:36;;;;;;;4.50;3.10;;;;;;;13.67;100.00;101701.59;4988616;28;20190;-83
2023/05/13 07:51:02;;;;;;;3.97;3.50;;;;;;;13.91;100.00;101728.03;4991252;28;20233;-85
2023/05/13 07:53:27;;;;;;;11.57;3.43;;;;;;;13.88;100.00;101747.31;4990276;28;20212;-83
2023/05/13 07:55:53;;;;;;;4.67;3.43;;;;;;;14.27;100.00;101796.31;4993012;28;20197;-83
2023/05/13 07:58:19;;;;;;;5.53;3.37;;;;;;;13.93;100.00;101777.25;4993140;28;20192;-82
2023/05/13 08:00:44;;;;;;;3.73;3.27;;;;;;;13.23;100.00;101668.50;4992992;28;20296;-84
2023/05/13 08:03:11;;;;;;;4.00;3.20;;;;;;;14.09;100.00;101832.75;4993664;28;20186;-84
2023/05/13 08:05:36;;;;;;;4.73;2.70;;;;;;;14.39;100.00;101868.41;4990150;28;20220;-79
2023/05/13 08:08:03;;;;;;;4.20;3.53;;;;;;;14.35;100.00;101832.06;4994480;28;20424;-82
2023/05/13 08:10:29;;;;;;;4.40;3.23;;;;;;;13.81;100.00;101737.56;4992803;28;20185;-80
2023/05/13 08:12:56;;;;;;;5.43;3.60;;;;;;;14.54;100.00;101840.50;4992529;28;20437;-80
2023/05/13 08:15:22;;;;;;;6.77;3.73;;;;;;;13.91;100.00;101732.63;4992129;28;20432;-82
2023/05/13 08:17:48;;;;;;;6.80;3.37;;;;;;;13.80;100.00;101698.97;4992498;28;20428;-80
2023/05/13 08:20:14;;;;;;;3.33;3.03;;;;;;;13.56;100.00;101635.56;4993185;28;20428;-78
2023/05/13 08:22:40;;;;;;;4.93;3.20;;;;;;;14.50;100.00;101761.75;4992121;28;20193;-81
2023/05/13 08:25:05;;;;;;;3.37;3.03;;;;;;;14.89;100.00;101825.03;4991697;28;21224;-81
2023/05/13 08:27:31;;;;;;;5.50;3.47;;;;;;;14.44;100.00;101776.06;4992010;28;20429;-79
2023/05/13 08:29:56;;;;;;;4.77;3.30;;;;;;;14.76;100.00;101833.94;4992999;28;20334;-81
2023/05/13 08:32:22;;;;;;;3.67;2.73;;;;;;;14.75;100.00;101821.47;4993069;28;20185;-79
2023/05/13 08:34:47;;;;;;;3.80;3.47;;;;;;;14.08;100.00;101704.28;4992346;28;20208;-78
2023/05/13 08:37:13;;;;;;;4.20;3.00;;;;;;;15.05;100.00;101858.97;4991756;28;20244;-80
2023/05/13 08:39:38;;;;;;;3.30;2.70;;;;;;;15.07;100.00;101846.94;4992452;28;20181;-79
2023/05/13 08:42:07;;;;;;;3.93;3.10;;;;;;;14.44;100.00;101749.06;4992515;28;20177;-80
2023/05/13 08:44:37;;;;;;;7.33;2.73;;;;;;;15.05;100.00;101843.59;5001821;23;20630;-82
2023/05/13 08:47:28;;;;;;;4.13;2.47;;;;;;;16.60;100.00;102085.19;5001962;28;20463;-82
2023/05/13 08:49:55;;;;;;;2.97;2.43;;;;;;;15.35;100.00;101959.47;5000464;28;20562;-82
2023/05/13 08:52:21;;;;;;;4.13;2.50;;;;;;;16.64;100.00;102210.25;5019424;28;20809;-82
2023/05/13 08:54:48;;;;;;;4.60;2.60;;;;;;;15.02;100.00;101891.81;5003568;28;20872;-81
2023/05/13 08:57:13;;;;;;;4.00;2.00;;;;;;;15.63;100.00;102058.56;5000569;28;20507;-82
2023/05/13 08:59:39;;;;;;;3.63;2.60;;;;;;;15.52;100.00;102014.00;5002616;28;20574;-81
2023/05/13 09:02:05;;;;;;;3.30;2.40;;;;;;;14.98;100.00;101918.38;5002498;28;20728;-83
2023/05/13 09:04:36;;;;;;;4.60;2.57;;;;;;;15.49;100.00;101998.19;5004549;28;20816;-82
2023/05/13 09:07:03;;;;;;;4.23;2.37;;;;;;;15.38;100.00;101951.78;5001411;28;20212;-82
2023/05/13 09:09:29;;;;;;;5.10;2.47;;;;;;;16.99;100.00;102210.09;5001244;28;20427;-82
2023/05/13 09:11:55;;;;;;;4.53;2.60;;;;;;;16.44;100.00;102137.91;5001645;28;20424;-82
2023/05/13 09:14:25;;;;;;;4.37;2.63;;;;;;;15.77;100.00;102079.25;5003598;28;20781;-82
2023/05/13 09:16:54;;;;;;;3.27;2.70;;;;;;;16.13;100.00;102187.19;5001925;28;20216;-81
2023/05/13 09:19:22;;;;;;;6.97;2.70;;;;;;;15.95;100.00;102185.03;5003094;28;20516;-82
2023/05/13 09:21:48;;;;;;;3.00;2.07;;;;;;;17.46;100.00;102419.75;5004074;28;20921;-82
2023/05/13 09:24:20;;;;;;;6.63;2.60;;;;;;;16.52;100.00;102245.22;5001983;28;20475;-83
2023/05/13 09:26:46;;;;;;;11.07;2.57;;;;;;;15.96;100.00;102186.69;5004514;28;20210;-82
2023/05/13 09:29:20;;;;;;;3.70;2.60;;;;;;;16.52;100.00;102293.97;5001967;28;20420;-82
2023/05/13 09:31:49;;;;;;;3.20;2.27;;;;;;;17.32;100.00;102437.88;5001294;28;20425;-82
2023/05/13 09:34:24;;;;;;;6.97;2.97;;;;;;;17.76;100.00;102507.03;5002429;28;20432;-82
2023/05/13 09:37:04;;;;;;;4.90;2.40;;;;;;;17.78;100.00;102258.03;5003453;28;20423;-82
2023/05/13 09:39:32;;;;;;;4.40;2.40;;;;;;;17.16;100.00;102071.22;5000697;28;20428;-81
2023/05/13 09:41:59;;;;;;;3.07;2.00;;;;;;;17.72;100.00;102178.28;5001388;28;20427;-82
2023/05/13 09:44:25;;;;;;;3.07;2.10;;;;;;;17.92;100.00;102223.56;5016235;28;20956;-81
2023/05/13 09:46:52;;;;;;;2.23;1.93;;;;;;;17.71;100.00;102181.22;5001157;28;20468;-81
2023/05/13 09:49:21;;;;;;;2.37;2.07;;;;;;;17.64;100.00;102213.78;5003511;28;21083;-81
2023/05/13 09:51:47;;;;;;;3.20;2.47;;;;;;;16.93;100.00;102046.47;5003103;28;20793;-80
2023/05/13 09:54:12;;;;;;;3.87;2.40;;;;;;;16.24;100.00;101890.69;5000830;28;20436;-82
2023/05/13 09:56:38;;;;;;;4.47;2.07;;;;;;;17.06;100.00;102024.72;5001184;28;20193;-82
2023/05/13 09:59:03;;;;;;;3.13;2.60;;;;;;;18.31;100.00;102214.38;5000241;28;20231;-80
2023/05/13 10:01:29;;;;;;;3.50;2.40;;;;;;;17.67;100.00;102134.66;5001142;28;20189;-82
2023/05/13 10:03:57;;;;;;;4.50;2.40;;;;;;;16.98;100.00;101989.75;4995260;28;20196;-81
2023/05/13 10:06:25;;;;;;;4.00;2.37;;;;;;;18.36;100.00;102214.56;4998667;28;20220;-79
2023/05/13 10:08:51;;;;;;;2.47;2.10;;;;;;;17.84;100.00;102135.06;4999684;28;20445;-80
2023/05/13 10:11:18;;;;;;;2.37;2.17;;;;;;;16.89;100.00;101953.91;4999687;28;20539;-79
2023/05/13 10:13:49;;;;;;;6.57;2.60;;;;;;;16.96;100.00;101932.19;4998901;28;20452;-82
2023/05/13 10:16:17;;;;;;;7.60;2.10;;;;;;;18.67;100.00;102202.91;4999523;28;20523;-80
2023/05/13 10:18:42;;;;;;;4.73;1.97;;;;;;;18.36;100.00;102181.16;4996004;28;20448;-82
2023/05/13 10:21:08;;;;;;;4.03;2.40;;;;;;;18.14;100.00;102146.19;4998676;28;20439;-83
2023/05/13 10:23:34;;;;;;;2.33;1.93;;;;;;;18.04;100.00;102091.53;4993957;28;20670;-80
2023/05/13 10:26:00;;;;;;;5.10;2.17;;;;;;;18.58;100.00;102187.91;4993063;28;20240;-82
2023/05/13 10:28:26;;;;;;;2.57;1.90;;;;;;;17.71;100.00;102042.84;4994057;28;20439;-82
2023/05/13 10:30:52;;;;;;;3.00;1.90;;;;;;;17.70;100.00;101995.84;5002027;28;20436;-85
2023/05/13 10:33:19;;;;;;;3.70;2.13;;;;;;;18.76;100.00;102194.50;4999332;28;20444;-81
2023/05/13 10:36:33;;;;;;;5.80;1.90;;;;;;;17.78;100.00;102035.50;5000475;28;20209;-86
2023/05/13 10:39:05;;;;;;;3.47;2.50;;;;;;;17.83;100.00;101993.09;5009958;28;20436;-86
2023/05/13 10:42:10;;;;;;;3.60;1.97;;;;;;;17.76;100.00;101978.72;4996699;28;20432;-86
2023/05/13 10:44:41;;;;;;;3.47;2.20;;;;;;;18.51;100.00;102105.59;5002006;28;20532;-86
2023/05/13 10:47:23;;;;;;;4.30;2.50;;;;;;;17.41;100.00;101888.78;4996012;28;20507;-82
2023/05/13 10:49:53;;;;;;;4.77;2.20;;;;;;;18.22;100.00;102056.28;4994666;28;20447;-84
2023/05/13 10:52:19;;;;;;;4.30;2.27;;;;;;;17.43;100.00;101918.41;4991472;28;20991;-85
2023/05/13 10:55:00;;;;;;;3.53;2.50;;;;;;;17.75;100.00;101958.03;4996274;28;20574;-87
2023/05/13 10:57:35;;;;;;;5.53;2.70;;;;;;;17.66;100.00;101943.09;4993029;28;20189;-80
2023/05/13 11:00:17;;;;;;;4.53;2.70;;;;;;;17.61;100.00;101922.03;5000521;28;20439;-80
2023/05/13 11:02:49;;;;;;;3.83;2.33;;;;;;;19.49;100.00;102213.72;5007145;28;20482;-82
2023/05/13 11:05:20;;;;;;;3.97;2.40;;;;;;;17.76;100.00;101896.47;4995493;28;20611;-80
2023/05/13 11:07:59;;;;;;;3.63;2.13;;;;;;;18.78;100.00;102098.13;4997312;28;21035;-79
2023/05/13 11:10:31;;;;;;;5.33;2.67;;;;;;;17.75;100.00;101936.34;4995022;28;20489;-82
2023/05/13 11:13:34;;;;;;;3.77;2.00;;;;;;;19.49;100.00;102197.41;4996492;28;20539;-83
2023/05/13 11:16:05;;;;;;;4.20;1.73;;;;;;;18.05;100.00;101938.44;4994777;28;20686;-84
2023/05/13 11:18:33;;;;;;;2.63;1.90;;;;;;;17.99;100.00;101955.59;4995739;28;20467;-77
2023/05/13 11:21:03;;;;;;;3.23;2.27;;;;;;;18.00;100.00;101908.41;4991445;28;21231;-79